Chicago, Illinois
Current Conditions -  °F | °C
As of 2:53 AM on Monday 20 Oct 2014 (Local Time) from KMDW Reporting Station
Clear Clear  
Wind Chill: 11°   Ceiling: Unl
Heat Index: 11°   Visibility: 10mi
Dew Point:   Wind: 10mph
Humidity: 80%   Direction: 210°SSW
Pressure: 29.85"   Gusts: NA
Location:  41.88°N, 87.63°W
Report Text: KMDW 200753Z 21009KT 10SM CLR 11/07 A2985 RMK AO2 SLP109 T01060072
Loading
Personal Weather Stations






























Interactive Weather Map
Tropical Storm Tracking
New forecast layout! Learn more

10-Day Weather Forecast

Advertisements
Track Severe Weather on mobile